sensor_id;sensor_type;location;lat;lon;timestamp;P1;durP1;ratioP1;P2;durP2;ratioP2
31262;SDS011;17892;52.080;9.006;2023-08-24T00:01:10;3.30;;;1.83;;
31262;SDS011;17892;52.080;9.006;2023-08-24T00:03:37;2.65;;;1.60;;
31262;SDS011;17892;52.080;9.006;2023-08-24T00:06:04;3.25;;;1.80;;
31262;SDS011;17892;52.080;9.006;2023-08-24T00:08:31;2.63;;;1.65;;
31262;SDS011;17892;52.080;9.006;2023-08-24T00:10:57;2.88;;;1.65;;
31262;SDS011;17892;52.080;9.006;2023-08-24T00:13:23;3.08;;;2.25;;
31262;SDS011;17892;52.080;9.006;2023-08-24T00:15:50;3.30;;;2.10;;
31262;SDS011;17892;52.080;9.006;2023-08-24T00:18:16;3.83;;;2.58;;
31262;SDS011;17892;52.080;9.006;2023-08-24T00:20:43;4.30;;;2.20;;
31262;SDS011;17892;52.080;9.006;2023-08-24T00:23:09;3.47;;;2.60;;
31262;SDS011;17892;52.080;9.006;2023-08-24T00:25:34;3.45;;;2.42;;
31262;SDS011;17892;52.080;9.006;2023-08-24T00:28:00;5.32;;;2.92;;
31262;SDS011;17892;52.080;9.006;2023-08-24T00:30:26;5.47;;;2.90;;
31262;SDS011;17892;52.080;9.006;2023-08-24T00:32:52;4.18;;;2.90;;
31262;SDS011;17892;52.080;9.006;2023-08-24T00:35:17;3.22;;;2.42;;
31262;SDS011;17892;52.080;9.006;2023-08-24T00:37:43;3.55;;;2.63;;
31262;SDS011;17892;52.080;9.006;2023-08-24T00:40:09;3.80;;;2.45;;
31262;SDS011;17892;52.080;9.006;2023-08-24T00:42:41;5.50;;;3.13;;
31262;SDS011;17892;52.080;9.006;2023-08-24T00:45:09;4.20;;;3.05;;
31262;SDS011;17892;52.080;9.006;2023-08-24T00:47:36;4.32;;;3.15;;
31262;SDS011;17892;52.080;9.006;2023-08-24T00:50:05;4.00;;;3.28;;
31262;SDS011;17892;52.080;9.006;2023-08-24T00:52:35;3.83;;;2.85;;
31262;SDS011;17892;52.080;9.006;2023-08-24T00:55:04;4.72;;;3.42;;
31262;SDS011;17892;52.080;9.006;2023-08-24T00:57:31;4.38;;;3.17;;
31262;SDS011;17892;52.080;9.006;2023-08-24T00:59:57;3.60;;;2.35;;
31262;SDS011;17892;52.080;9.006;2023-08-24T01:02:30;3.67;;;2.72;;
31262;SDS011;17892;52.080;9.006;2023-08-24T01:04:57;4.57;;;2.35;;
31262;SDS011;17892;52.080;9.006;2023-08-24T01:07:24;4.10;;;2.50;;
31262;SDS011;17892;52.080;9.006;2023-08-24T01:09:50;4.47;;;2.40;;
31262;SDS011;17892;52.080;9.006;2023-08-24T01:12:33;3.72;;;2.53;;
31262;SDS011;17892;52.080;9.006;2023-08-24T01:16:00;4.88;;;3.42;;
31262;SDS011;17892;52.080;9.006;2023-08-24T01:18:10;5.25;;;2.95;;
31262;SDS011;17892;52.080;9.006;2023-08-24T01:20:44;3.45;;;2.90;;
31262;SDS011;17892;52.080;9.006;2023-08-24T01:28:39;3.60;;;2.47;;
31262;SDS011;17892;52.080;9.006;2023-08-24T01:31:07;3.78;;;2.60;;
31262;SDS011;17892;52.080;9.006;2023-08-24T01:33:33;3.75;;;2.05;;
31262;SDS011;17892;52.080;9.006;2023-08-24T01:35:59;3.47;;;2.13;;
31262;SDS011;17892;52.080;9.006;2023-08-24T01:38:25;3.80;;;2.28;;
31262;SDS011;17892;52.080;9.006;2023-08-24T01:43:29;4.05;;;2.30;;
31262;SDS011;17892;52.080;9.006;2023-08-24T01:45:58;3.10;;;2.13;;
31262;SDS011;17892;52.080;9.006;2023-08-24T01:48:24;3.80;;;2.13;;
31262;SDS011;17892;52.080;9.006;2023-08-24T01:50:52;3.25;;;2.13;;
31262;SDS011;17892;52.080;9.006;2023-08-24T01:53:18;3.17;;;2.30;;
31262;SDS011;17892;52.080;9.006;2023-08-24T01:55:47;3.65;;;2.42;;
31262;SDS011;17892;52.080;9.006;2023-08-24T01:58:13;4.13;;;2.03;;
31262;SDS011;17892;52.080;9.006;2023-08-24T02:00:38;3.70;;;2.33;;
31262;SDS011;17892;52.080;9.006;2023-08-24T02:03:04;3.40;;;2.50;;
31262;SDS011;17892;52.080;9.006;2023-08-24T02:05:30;3.60;;;1.92;;
31262;SDS011;17892;52.080;9.006;2023-08-24T02:07:55;3.53;;;2.05;;
31262;SDS011;17892;52.080;9.006;2023-08-24T02:10:22;4.47;;;2.05;;
31262;SDS011;17892;52.080;9.006;2023-08-24T02:12:48;2.28;;;1.42;;
31262;SDS011;17892;52.080;9.006;2023-08-24T02:15:14;3.15;;;1.67;;
31262;SDS011;17892;52.080;9.006;2023-08-24T02:17:40;2.65;;;1.48;;
31262;SDS011;17892;52.080;9.006;2023-08-24T02:20:05;3.38;;;1.80;;
31262;SDS011;17892;52.080;9.006;2023-08-24T02:22:33;3.42;;;2.00;;
31262;SDS011;17892;52.080;9.006;2023-08-24T02:24:59;4.40;;;1.83;;
31262;SDS011;17892;52.080;9.006;2023-08-24T02:27:27;3.28;;;1.90;;
31262;SDS011;17892;52.080;9.006;2023-08-24T02:29:52;2.75;;;1.40;;
31262;SDS011;17892;52.080;9.006;2023-08-24T02:32:18;2.90;;;1.70;;
31262;SDS011;17892;52.080;9.006;2023-08-24T02:34:44;3.17;;;1.90;;
31262;SDS011;17892;52.080;9.006;2023-08-24T02:37:10;2.88;;;2.00;;
31262;SDS011;17892;52.080;9.006;2023-08-24T02:39:35;3.03;;;1.90;;
31262;SDS011;17892;52.080;9.006;2023-08-24T02:42:01;7.47;;;2.20;;
31262;SDS011;17892;52.080;9.006;2023-08-24T02:44:27;3.10;;;1.75;;
31262;SDS011;17892;52.080;9.006;2023-08-24T02:46:53;3.47;;;2.20;;
31262;SDS011;17892;52.080;9.006;2023-08-24T02:49:19;4.10;;;2.40;;
31262;SDS011;17892;52.080;9.006;2023-08-24T02:51:45;3.63;;;2.22;;
31262;SDS011;17892;52.080;9.006;2023-08-24T02:54:11;3.30;;;1.90;;
31262;SDS011;17892;52.080;9.006;2023-08-24T02:56:37;3.90;;;2.30;;
31262;SDS011;17892;52.080;9.006;2023-08-24T02:59:02;3.83;;;2.25;;
31262;SDS011;17892;52.080;9.006;2023-08-24T03:01:28;3.38;;;1.80;;
31262;SDS011;17892;52.080;9.006;2023-08-24T03:03:54;4.25;;;1.83;;
31262;SDS011;17892;52.080;9.006;2023-08-24T03:06:20;4.00;;;2.10;;
31262;SDS011;17892;52.080;9.006;2023-08-24T03:08:48;3.72;;;2.22;;
31262;SDS011;17892;52.080;9.006;2023-08-24T03:11:14;4.63;;;2.92;;
31262;SDS011;17892;52.080;9.006;2023-08-24T03:13:40;3.97;;;2.88;;
31262;SDS011;17892;52.080;9.006;2023-08-24T03:16:06;3.47;;;2.22;;
31262;SDS011;17892;52.080;9.006;2023-08-24T03:18:33;3.08;;;2.00;;
31262;SDS011;17892;52.080;9.006;2023-08-24T03:20:59;3.90;;;2.75;;
31262;SDS011;17892;52.080;9.006;2023-08-24T03:23:25;4.85;;;2.50;;
31262;SDS011;17892;52.080;9.006;2023-08-24T03:25:51;4.05;;;2.80;;
31262;SDS011;17892;52.080;9.006;2023-08-24T03:28:17;4.93;;;2.63;;
31262;SDS011;17892;52.080;9.006;2023-08-24T03:30:47;4.78;;;2.47;;
31262;SDS011;17892;52.080;9.006;2023-08-24T03:33:15;3.72;;;2.38;;
31262;SDS011;17892;52.080;9.006;2023-08-24T03:35:41;3.30;;;2.22;;
31262;SDS011;17892;52.080;9.006;2023-08-24T03:38:06;5.32;;;2.95;;
31262;SDS011;17892;52.080;9.006;2023-08-24T03:40:32;3.60;;;2.42;;
31262;SDS011;17892;52.080;9.006;2023-08-24T03:42:58;3.92;;;2.85;;
31262;SDS011;17892;52.080;9.006;2023-08-24T03:45:27;4.95;;;3.45;;
31262;SDS011;17892;52.080;9.006;2023-08-24T03:47:52;4.00;;;2.88;;
31262;SDS011;17892;52.080;9.006;2023-08-24T03:50:19;5.13;;;3.63;;
31262;SDS011;17892;52.080;9.006;2023-08-24T03:52:47;5.03;;;3.53;;
31262;SDS011;17892;52.080;9.006;2023-08-24T03:55:15;3.97;;;2.83;;
31262;SDS011;17892;52.080;9.006;2023-08-24T03:57:41;3.88;;;2.67;;
31262;SDS011;17892;52.080;9.006;2023-08-24T04:00:07;3.92;;;3.17;;
31262;SDS011;17892;52.080;9.006;2023-08-24T04:02:40;4.40;;;2.70;;
31262;SDS011;17892;52.080;9.006;2023-08-24T04:05:06;4.07;;;2.85;;
31262;SDS011;17892;52.080;9.006;2023-08-24T04:07:32;4.00;;;2.72;;
31262;SDS011;17892;52.080;9.006;2023-08-24T04:10:01;5.38;;;3.20;;
31262;SDS011;17892;52.080;9.006;2023-08-24T04:12:33;5.13;;;4.30;;
31262;SDS011;17892;52.080;9.006;2023-08-24T04:14:59;4.40;;;3.35;;
31262;SDS011;17892;52.080;9.006;2023-08-24T04:17:25;5.43;;;3.25;;
31262;SDS011;17892;52.080;9.006;2023-08-24T04:19:51;5.60;;;3.65;;
31262;SDS011;17892;52.080;9.006;2023-08-24T04:22:17;7.28;;;3.97;;
31262;SDS011;17892;52.080;9.006;2023-08-24T04:24:43;5.07;;;3.80;;
31262;SDS011;17892;52.080;9.006;2023-08-24T04:27:09;6.25;;;4.45;;
31262;SDS011;17892;52.080;9.006;2023-08-24T04:29:34;6.97;;;4.13;;
31262;SDS011;17892;52.080;9.006;2023-08-24T04:32:00;5.20;;;3.63;;
31262;SDS011;17892;52.080;9.006;2023-08-24T04:34:26;4.55;;;3.67;;
31262;SDS011;17892;52.080;9.006;2023-08-24T04:36:51;4.90;;;3.75;;
31262;SDS011;17892;52.080;9.006;2023-08-24T04:39:17;4.75;;;4.05;;
31262;SDS011;17892;52.080;9.006;2023-08-24T04:41:46;5.25;;;4.13;;
31262;SDS011;17892;52.080;9.006;2023-08-24T04:44:11;6.00;;;4.07;;
31262;SDS011;17892;52.080;9.006;2023-08-24T04:46:37;5.82;;;4.68;;
31262;SDS011;17892;52.080;9.006;2023-08-24T04:49:03;5.47;;;4.43;;
31262;SDS011;17892;52.080;9.006;2023-08-24T04:51:29;5.30;;;3.72;;
31262;SDS011;17892;52.080;9.006;2023-08-24T04:53:54;6.03;;;4.70;;
31262;SDS011;17892;52.080;9.006;2023-08-24T04:56:20;5.40;;;4.25;;
31262;SDS011;17892;52.080;9.006;2023-08-24T04:58:53;6.40;;;4.40;;
31262;SDS011;17892;52.080;9.006;2023-08-24T05:01:22;6.85;;;5.15;;
31262;SDS011;17892;52.080;9.006;2023-08-24T05:03:52;5.13;;;4.22;;
31262;SDS011;17892;52.080;9.006;2023-08-24T05:06:19;6.75;;;4.80;;
31262;SDS011;17892;52.080;9.006;2023-08-24T05:08:46;6.25;;;4.95;;
31262;SDS011;17892;52.080;9.006;2023-08-24T05:11:12;8.25;;;5.43;;
31262;SDS011;17892;52.080;9.006;2023-08-24T05:13:39;8.18;;;6.00;;
31262;SDS011;17892;52.080;9.006;2023-08-24T05:16:06;6.85;;;5.03;;
31262;SDS011;17892;52.080;9.006;2023-08-24T05:18:31;6.65;;;5.13;;
31262;SDS011;17892;52.080;9.006;2023-08-24T05:20:59;8.38;;;5.70;;
31262;SDS011;17892;52.080;9.006;2023-08-24T05:23:24;7.75;;;5.53;;
31262;SDS011;17892;52.080;9.006;2023-08-24T05:25:50;8.35;;;5.43;;
31262;SDS011;17892;52.080;9.006;2023-08-24T05:28:16;7.30;;;5.50;;
31262;SDS011;17892;52.080;9.006;2023-08-24T05:30:41;6.50;;;5.80;;
31262;SDS011;17892;52.080;9.006;2023-08-24T05:33:07;10.73;;;5.80;;
31262;SDS011;17892;52.080;9.006;2023-08-24T05:35:33;7.32;;;5.00;;
31262;SDS011;17892;52.080;9.006;2023-08-24T05:37:58;7.07;;;5.03;;
31262;SDS011;17892;52.080;9.006;2023-08-24T05:40:24;6.28;;;4.95;;
31262;SDS011;17892;52.080;9.006;2023-08-24T05:42:50;5.88;;;5.20;;
31262;SDS011;17892;52.080;9.006;2023-08-24T05:45:15;6.00;;;4.93;;
31262;SDS011;17892;52.080;9.006;2023-08-24T05:47:41;6.93;;;5.15;;
31262;SDS011;17892;52.080;9.006;2023-08-24T05:50:07;6.43;;;4.65;;
31262;SDS011;17892;52.080;9.006;2023-08-24T05:52:33;6.13;;;4.97;;
31262;SDS011;17892;52.080;9.006;2023-08-24T05:54:59;6.20;;;5.30;;
31262;SDS011;17892;52.080;9.006;2023-08-24T05:57:24;7.22;;;6.28;;
31262;SDS011;17892;52.080;9.006;2023-08-24T05:59:50;7.15;;;5.40;;
31262;SDS011;17892;52.080;9.006;2023-08-24T06:02:15;6.10;;;5.05;;
31262;SDS011;17892;52.080;9.006;2023-08-24T06:04:41;7.55;;;5.32;;
31262;SDS011;17892;52.080;9.006;2023-08-24T06:07:07;5.18;;;4.68;;
31262;SDS011;17892;52.080;9.006;2023-08-24T06:09:32;5.30;;;4.70;;
31262;SDS011;17892;52.080;9.006;2023-08-24T06:11:58;7.15;;;5.78;;
31262;SDS011;17892;52.080;9.006;2023-08-24T06:14:24;6.20;;;5.57;;
31262;SDS011;17892;52.080;9.006;2023-08-24T06:16:49;6.50;;;5.85;;
31262;SDS011;17892;52.080;9.006;2023-08-24T06:19:18;8.38;;;5.43;;
31262;SDS011;17892;52.080;9.006;2023-08-24T06:21:44;6.53;;;5.57;;
31262;SDS011;17892;52.080;9.006;2023-08-24T06:24:09;7.82;;;6.30;;
31262;SDS011;17892;52.080;9.006;2023-08-24T06:26:35;7.18;;;6.47;;
31262;SDS011;17892;52.080;9.006;2023-08-24T06:29:01;8.45;;;5.95;;
31262;SDS011;17892;52.080;9.006;2023-08-24T06:31:26;7.05;;;6.35;;
31262;SDS011;17892;52.080;9.006;2023-08-24T06:33:52;7.63;;;6.60;;
31262;SDS011;17892;52.080;9.006;2023-08-24T06:36:18;7.63;;;6.40;;
31262;SDS011;17892;52.080;9.006;2023-08-24T06:38:44;7.50;;;6.05;;
31262;SDS011;17892;52.080;9.006;2023-08-24T06:41:09;7.35;;;6.57;;
31262;SDS011;17892;52.080;9.006;2023-08-24T06:43:37;7.68;;;5.95;;
31262;SDS011;17892;52.080;9.006;2023-08-24T06:46:06;6.57;;;5.72;;
31262;SDS011;17892;52.080;9.006;2023-08-24T06:48:35;8.10;;;5.68;;
31262;SDS011;17892;52.080;9.006;2023-08-24T06:51:02;7.05;;;5.82;;
31262;SDS011;17892;52.080;9.006;2023-08-24T06:53:28;6.45;;;5.47;;
31262;SDS011;17892;52.080;9.006;2023-08-24T06:55:55;7.30;;;6.47;;
31262;SDS011;17892;52.080;9.006;2023-08-24T06:58:22;6.28;;;4.85;;
31262;SDS011;17892;52.080;9.006;2023-08-24T07:00:48;7.07;;;5.22;;
31262;SDS011;17892;52.080;9.006;2023-08-24T07:03:16;5.45;;;4.75;;
31262;SDS011;17892;52.080;9.006;2023-08-24T07:05:43;5.72;;;4.78;;
31262;SDS011;17892;52.080;9.006;2023-08-24T07:08:09;5.78;;;5.07;;
31262;SDS011;17892;52.080;9.006;2023-08-24T07:10:35;5.53;;;4.43;;
31262;SDS011;17892;52.080;9.006;2023-08-24T07:13:01;5.00;;;4.43;;
31262;SDS011;17892;52.080;9.006;2023-08-24T07:15:27;5.90;;;4.63;;
31262;SDS011;17892;52.080;9.006;2023-08-24T07:17:53;6.13;;;4.35;;
31262;SDS011;17892;52.080;9.006;2023-08-24T07:20:18;5.82;;;4.53;;
31262;SDS011;17892;52.080;9.006;2023-08-24T07:22:44;6.00;;;4.18;;
31262;SDS011;17892;52.080;9.006;2023-08-24T07:25:10;6.55;;;4.25;;
31262;SDS011;17892;52.080;9.006;2023-08-24T07:27:37;5.70;;;4.18;;
31262;SDS011;17892;52.080;9.006;2023-08-24T07:30:03;4.80;;;3.90;;
31262;SDS011;17892;52.080;9.006;2023-08-24T07:32:32;4.80;;;3.80;;
31262;SDS011;17892;52.080;9.006;2023-08-24T07:34:58;5.25;;;3.58;;
31262;SDS011;17892;52.080;9.006;2023-08-24T07:37:24;4.82;;;3.88;;
31262;SDS011;17892;52.080;9.006;2023-08-24T07:39:51;4.10;;;3.67;;
31262;SDS011;17892;52.080;9.006;2023-08-24T07:42:20;4.97;;;4.07;;
31262;SDS011;17892;52.080;9.006;2023-08-24T07:44:49;6.18;;;3.97;;
31262;SDS011;17892;52.080;9.006;2023-08-24T07:47:15;4.40;;;3.92;;
31262;SDS011;17892;52.080;9.006;2023-08-24T07:49:41;6.15;;;4.07;;
31262;SDS011;17892;52.080;9.006;2023-08-24T07:54:37;4.82;;;3.35;;
31262;SDS011;17892;52.080;9.006;2023-08-24T07:57:03;5.45;;;3.88;;
31262;SDS011;17892;52.080;9.006;2023-08-24T07:59:30;4.90;;;3.22;;
31262;SDS011;17892;52.080;9.006;2023-08-24T08:01:56;4.53;;;3.35;;
31262;SDS011;17892;52.080;9.006;2023-08-24T08:04:21;4.10;;;2.92;;
31262;SDS011;17892;52.080;9.006;2023-08-24T08:06:47;4.78;;;3.35;;
31262;SDS011;17892;52.080;9.006;2023-08-24T08:09:13;5.30;;;3.47;;
31262;SDS011;17892;52.080;9.006;2023-08-24T08:11:39;3.83;;;3.10;;
31262;SDS011;17892;52.080;9.006;2023-08-24T08:14:04;4.68;;;3.00;;
31262;SDS011;17892;52.080;9.006;2023-08-24T08:16:30;5.28;;;2.60;;
31262;SDS011;17892;52.080;9.006;2023-08-24T08:18:56;7.90;;;2.95;;
31262;SDS011;17892;52.080;9.006;2023-08-24T08:21:22;4.80;;;2.60;;
31262;SDS011;17892;52.080;9.006;2023-08-24T08:23:48;5.00;;;2.67;;
31262;SDS011;17892;52.080;9.006;2023-08-24T08:26:14;4.90;;;2.90;;
31262;SDS011;17892;52.080;9.006;2023-08-24T08:28:41;3.50;;;2.47;;
31262;SDS011;17892;52.080;9.006;2023-08-24T08:31:07;3.80;;;2.45;;
31262;SDS011;17892;52.080;9.006;2023-08-24T08:33:32;3.90;;;2.33;;
31262;SDS011;17892;52.080;9.006;2023-08-24T08:35:58;3.30;;;2.22;;
31262;SDS011;17892;52.080;9.006;2023-08-24T08:38:24;3.33;;;2.50;;
31262;SDS011;17892;52.080;9.006;2023-08-24T08:40:53;4.28;;;2.60;;
31262;SDS011;17892;52.080;9.006;2023-08-24T08:43:21;3.72;;;2.47;;
31262;SDS011;17892;52.080;9.006;2023-08-24T08:45:51;4.30;;;2.80;;
31262;SDS011;17892;52.080;9.006;2023-08-24T08:48:18;4.40;;;3.00;;
31262;SDS011;17892;52.080;9.006;2023-08-24T08:50:49;4.03;;;2.75;;
31262;SDS011;17892;52.080;9.006;2023-08-24T08:53:20;4.18;;;2.92;;
31262;SDS011;17892;52.080;9.006;2023-08-24T08:55:46;3.80;;;2.80;;
31262;SDS011;17892;52.080;9.006;2023-08-24T09:00:40;3.83;;;2.20;;
31262;SDS011;17892;52.080;9.006;2023-08-24T09:03:06;3.70;;;2.53;;
31262;SDS011;17892;52.080;9.006;2023-08-24T09:05:34;3.20;;;2.30;;
31262;SDS011;17892;52.080;9.006;2023-08-24T09:08:02;4.38;;;2.10;;
31262;SDS011;17892;52.080;9.006;2023-08-24T09:10:30;3.22;;;2.30;;
31262;SDS011;17892;52.080;9.006;2023-08-24T09:12:56;4.55;;;2.50;;
31262;SDS011;17892;52.080;9.006;2023-08-24T09:15:34;3.85;;;2.40;;
31262;SDS011;17892;52.080;9.006;2023-08-24T09:18:01;3.33;;;2.33;;
31262;SDS011;17892;52.080;9.006;2023-08-24T09:20:28;3.35;;;2.28;;
31262;SDS011;17892;52.080;9.006;2023-08-24T09:22:57;3.53;;;2.08;;
31262;SDS011;17892;52.080;9.006;2023-08-24T09:25:23;6.13;;;2.83;;
31262;SDS011;17892;52.080;9.006;2023-08-24T09:27:59;4.15;;;2.22;;
31262;SDS011;17892;52.080;9.006;2023-08-24T09:30:29;4.18;;;2.55;;
31262;SDS011;17892;52.080;9.006;2023-08-24T09:33:00;2.95;;;2.17;;
31262;SDS011;17892;52.080;9.006;2023-08-24T09:35:34;3.90;;;2.25;;
31262;SDS011;17892;52.080;9.006;2023-08-24T09:38:15;3.42;;;2.00;;
31262;SDS011;17892;52.080;9.006;2023-08-24T09:40:48;3.65;;;2.20;;
31262;SDS011;17892;52.080;9.006;2023-08-24T09:43:17;4.40;;;2.15;;
31262;SDS011;17892;52.080;9.006;2023-08-24T09:45:53;4.20;;;2.58;;
31262;SDS011;17892;52.080;9.006;2023-08-24T09:48:21;3.20;;;2.40;;
31262;SDS011;17892;52.080;9.006;2023-08-24T09:50:49;5.72;;;2.05;;
31262;SDS011;17892;52.080;9.006;2023-08-24T09:55:49;3.30;;;1.83;;
31262;SDS011;17892;52.080;9.006;2023-08-24T09:58:26;3.33;;;2.10;;
31262;SDS011;17892;52.080;9.006;2023-08-24T10:00:53;3.13;;;1.90;;
31262;SDS011;17892;52.080;9.006;2023-08-24T10:03:21;3.97;;;2.22;;
31262;SDS011;17892;52.080;9.006;2023-08-24T10:05:51;3.00;;;1.80;;
31262;SDS011;17892;52.080;9.006;2023-08-24T10:08:29;3.38;;;1.88;;
31262;SDS011;17892;52.080;9.006;2023-08-24T10:11:01;3.05;;;2.00;;
31262;SDS011;17892;52.080;9.006;2023-08-24T10:16:28;5.13;;;2.08;;
31262;SDS011;17892;52.080;9.006;2023-08-24T10:18:55;3.08;;;1.77;;
31262;SDS011;17892;52.080;9.006;2023-08-24T10:21:21;3.22;;;1.90;;
31262;SDS011;17892;52.080;9.006;2023-08-24T10:23:51;5.28;;;1.85;;
31262;SDS011;17892;52.080;9.006;2023-08-24T10:26:19;3.17;;;1.80;;
31262;SDS011;17892;52.080;9.006;2023-08-24T10:28:50;3.08;;;1.80;;
31262;SDS011;17892;52.080;9.006;2023-08-24T10:31:16;2.88;;;1.55;;
31262;SDS011;17892;52.080;9.006;2023-08-24T10:33:44;3.72;;;1.90;;
31262;SDS011;17892;52.080;9.006;2023-08-24T10:36:12;2.60;;;1.60;;
31262;SDS011;17892;52.080;9.006;2023-08-24T10:38:42;3.97;;;1.63;;
31262;SDS011;17892;52.080;9.006;2023-08-24T10:41:08;3.53;;;1.70;;
31262;SDS011;17892;52.080;9.006;2023-08-24T10:43:38;3.28;;;1.70;;
31262;SDS011;17892;52.080;9.006;2023-08-24T10:46:12;2.58;;;1.60;;
31262;SDS011;17892;52.080;9.006;2023-08-24T10:53:56;3.28;;;1.48;;
31262;SDS011;17892;52.080;9.006;2023-08-24T10:56:37;3.67;;;1.63;;
31262;SDS011;17892;52.080;9.006;2023-08-24T10:59:12;3.55;;;1.83;;
31262;SDS011;17892;52.080;9.006;2023-08-24T11:02:04;2.75;;;1.85;;
31262;SDS011;17892;52.080;9.006;2023-08-24T11:04:29;3.58;;;1.77;;
31262;SDS011;17892;52.080;9.006;2023-08-24T11:06:58;2.97;;;1.98;;
31262;SDS011;17892;52.080;9.006;2023-08-24T11:09:31;3.30;;;1.52;;
31262;SDS011;17892;52.080;9.006;2023-08-24T11:12:12;3.42;;;1.58;;
31262;SDS011;17892;52.080;9.006;2023-08-24T11:14:48;4.20;;;1.52;;
31262;SDS011;17892;52.080;9.006;2023-08-24T11:17:29;3.05;;;1.25;;
31262;SDS011;17892;52.080;9.006;2023-08-24T11:19:58;2.80;;;1.70;;
31262;SDS011;17892;52.080;9.006;2023-08-24T11:22:25;2.70;;;1.50;;
31262;SDS011;17892;52.080;9.006;2023-08-24T11:24:51;3.13;;;1.50;;
31262;SDS011;17892;52.080;9.006;2023-08-24T11:27:17;2.45;;;1.45;;
31262;SDS011;17892;52.080;9.006;2023-08-24T11:29:46;3.08;;;1.60;;
31262;SDS011;17892;52.080;9.006;2023-08-24T11:32:12;2.60;;;1.48;;
31262;SDS011;17892;52.080;9.006;2023-08-24T11:34:38;2.00;;;1.20;;
31262;SDS011;17892;52.080;9.006;2023-08-24T11:37:04;3.15;;;1.60;;
31262;SDS011;17892;52.080;9.006;2023-08-24T11:39:29;2.47;;;1.60;;
31262;SDS011;17892;52.080;9.006;2023-08-24T11:42:01;2.35;;;1.35;;
31262;SDS011;17892;52.080;9.006;2023-08-24T11:44:29;3.05;;;1.60;;
31262;SDS011;17892;52.080;9.006;2023-08-24T11:47:11;3.20;;;1.50;;
31262;SDS011;17892;52.080;9.006;2023-08-24T11:49:36;3.65;;;1.60;;
31262;SDS011;17892;52.080;9.006;2023-08-24T11:52:02;3.25;;;1.42;;
31262;SDS011;17892;52.080;9.006;2023-08-24T11:54:28;2.50;;;1.27;;
31262;SDS011;17892;52.080;9.006;2023-08-24T11:56:57;2.90;;;1.30;;
31262;SDS011;17892;52.080;9.006;2023-08-24T11:59:23;3.35;;;1.50;;
31262;SDS011;17892;52.080;9.006;2023-08-24T12:01:51;3.25;;;1.40;;
31262;SDS011;17892;52.080;9.006;2023-08-24T12:04:20;2.70;;;1.40;;
31262;SDS011;17892;52.080;9.006;2023-08-24T12:06:46;2.80;;;1.13;;
31262;SDS011;17892;52.080;9.006;2023-08-24T12:09:11;2.30;;;1.27;;
31262;SDS011;17892;52.080;9.006;2023-08-24T12:11:37;2.40;;;1.20;;
31262;SDS011;17892;52.080;9.006;2023-08-24T12:14:04;2.33;;;1.08;;
31262;SDS011;17892;52.080;9.006;2023-08-24T12:18:58;3.00;;;1.02;;
31262;SDS011;17892;52.080;9.006;2023-08-24T12:21:28;3.00;;;1.02;;
31262;SDS011;17892;52.080;9.006;2023-08-24T12:24:01;2.75;;;1.13;;
31262;SDS011;17892;52.080;9.006;2023-08-24T12:26:31;2.53;;;1.10;;
31262;SDS011;17892;52.080;9.006;2023-08-24T12:29:09;2.58;;;1.00;;
31262;SDS011;17892;52.080;9.006;2023-08-24T12:31:35;19.05;;;3.70;;
31262;SDS011;17892;52.080;9.006;2023-08-24T12:34:02;4.07;;;1.30;;
31262;SDS011;17892;52.080;9.006;2023-08-24T12:36:33;4.10;;;1.58;;
31262;SDS011;17892;52.080;9.006;2023-08-24T12:39:01;2.83;;;1.20;;
31262;SDS011;17892;52.080;9.006;2023-08-24T12:41:32;3.95;;;1.80;;
31262;SDS011;17892;52.080;9.006;2023-08-24T12:43:59;2.92;;;1.40;;
31262;SDS011;17892;52.080;9.006;2023-08-24T12:46:29;4.60;;;1.63;;
31262;SDS011;17892;52.080;9.006;2023-08-24T12:48:56;2.55;;;1.00;;
31262;SDS011;17892;52.080;9.006;2023-08-24T12:51:22;2.70;;;1.15;;
31262;SDS011;17892;52.080;9.006;2023-08-24T12:53:49;2.85;;;1.30;;
31262;SDS011;17892;52.080;9.006;2023-08-24T12:56:15;3.92;;;1.30;;
31262;SDS011;17892;52.080;9.006;2023-08-24T12:58:41;3.08;;;1.33;;
31262;SDS011;17892;52.080;9.006;2023-08-24T13:01:07;3.20;;;1.70;;
31262;SDS011;17892;52.080;9.006;2023-08-24T13:03:32;3.30;;;1.45;;
31262;SDS011;17892;52.080;9.006;2023-08-24T13:06:00;2.70;;;1.30;;
31262;SDS011;17892;52.080;9.006;2023-08-24T13:08:27;5.13;;;1.73;;
31262;SDS011;17892;52.080;9.006;2023-08-24T13:10:55;3.92;;;1.75;;
31262;SDS011;17892;52.080;9.006;2023-08-24T13:13:21;3.28;;;1.33;;
31262;SDS011;17892;52.080;9.006;2023-08-24T13:15:49;3.20;;;1.50;;
31262;SDS011;17892;52.080;9.006;2023-08-24T13:18:16;8.48;;;1.90;;
31262;SDS011;17892;52.080;9.006;2023-08-24T13:20:42;4.28;;;1.40;;
31262;SDS011;17892;52.080;9.006;2023-08-24T13:23:08;5.35;;;1.90;;
31262;SDS011;17892;52.080;9.006;2023-08-24T13:25:34;3.70;;;1.70;;
31262;SDS011;17892;52.080;9.006;2023-08-24T13:27:59;3.95;;;1.60;;
31262;SDS011;17892;52.080;9.006;2023-08-24T13:30:25;3.25;;;1.48;;
31262;SDS011;17892;52.080;9.006;2023-08-24T13:32:52;2.90;;;1.55;;
31262;SDS011;17892;52.080;9.006;2023-08-24T13:35:18;2.78;;;1.65;;
31262;SDS011;17892;52.080;9.006;2023-08-24T13:37:44;4.15;;;1.75;;
31262;SDS011;17892;52.080;9.006;2023-08-24T13:40:10;3.45;;;1.50;;
31262;SDS011;17892;52.080;9.006;2023-08-24T13:42:37;4.32;;;1.58;;
31262;SDS011;17892;52.080;9.006;2023-08-24T13:45:03;3.33;;;1.42;;
31262;SDS011;17892;52.080;9.006;2023-08-24T13:47:29;4.93;;;1.83;;
31262;SDS011;17892;52.080;9.006;2023-08-24T13:49:55;3.33;;;1.60;;
31262;SDS011;17892;52.080;9.006;2023-08-24T13:52:20;3.83;;;1.70;;
31262;SDS011;17892;52.080;9.006;2023-08-24T13:54:46;2.78;;;1.33;;
31262;SDS011;17892;52.080;9.006;2023-08-24T13:57:12;4.85;;;2.10;;
31262;SDS011;17892;52.080;9.006;2023-08-24T13:59:38;5.55;;;1.77;;
31262;SDS011;17892;52.080;9.006;2023-08-24T14:02:05;4.95;;;1.80;;
31262;SDS011;17892;52.080;9.006;2023-08-24T14:04:31;2.63;;;1.50;;
31262;SDS011;17892;52.080;9.006;2023-08-24T14:06:57;3.58;;;1.55;;
31262;SDS011;17892;52.080;9.006;2023-08-24T14:09:23;3.72;;;1.80;;
31262;SDS011;17892;52.080;9.006;2023-08-24T14:11:49;3.72;;;1.52;;
31262;SDS011;17892;52.080;9.006;2023-08-24T14:14:15;3.00;;;1.58;;
31262;SDS011;17892;52.080;9.006;2023-08-24T14:16:40;4.40;;;2.20;;
31262;SDS011;17892;52.080;9.006;2023-08-24T14:19:06;4.03;;;2.10;;
31262;SDS011;17892;52.080;9.006;2023-08-24T14:21:32;4.05;;;1.65;;
31262;SDS011;17892;52.080;9.006;2023-08-24T14:23:58;3.33;;;2.00;;
31262;SDS011;17892;52.080;9.006;2023-08-24T14:26:23;5.18;;;2.13;;
31262;SDS011;17892;52.080;9.006;2023-08-24T14:28:56;4.55;;;1.80;;
31262;SDS011;17892;52.080;9.006;2023-08-24T14:31:24;3.00;;;1.88;;
31262;SDS011;17892;52.080;9.006;2023-08-24T14:33:56;3.30;;;1.80;;
31262;SDS011;17892;52.080;9.006;2023-08-24T14:36:22;3.08;;;1.75;;
31262;SDS011;17892;52.080;9.006;2023-08-24T14:38:49;3.28;;;1.70;;
31262;SDS011;17892;52.080;9.006;2023-08-24T14:41:18;3.97;;;1.58;;
31262;SDS011;17892;52.080;9.006;2023-08-24T14:43:44;8.63;;;2.53;;
31262;SDS011;17892;52.080;9.006;2023-08-24T14:46:11;3.30;;;1.60;;
31262;SDS011;17892;52.080;9.006;2023-08-24T14:48:37;3.15;;;1.60;;
31262;SDS011;17892;52.080;9.006;2023-08-24T14:51:04;4.78;;;1.77;;
31262;SDS011;17892;52.080;9.006;2023-08-24T14:53:29;4.78;;;1.63;;
31262;SDS011;17892;52.080;9.006;2023-08-24T14:55:56;3.55;;;1.60;;
31262;SDS011;17892;52.080;9.006;2023-08-24T14:58:22;5.78;;;1.75;;
31262;SDS011;17892;52.080;9.006;2023-08-24T15:00:50;3.42;;;1.58;;
31262;SDS011;17892;52.080;9.006;2023-08-24T15:03:20;3.13;;;1.60;;
31262;SDS011;17892;52.080;9.006;2023-08-24T15:05:55;3.17;;;1.75;;
31262;SDS011;17892;52.080;9.006;2023-08-24T15:08:26;3.58;;;1.80;;
31262;SDS011;17892;52.080;9.006;2023-08-24T15:10:56;3.78;;;1.70;;
31262;SDS011;17892;52.080;9.006;2023-08-24T15:13:23;3.08;;;1.60;;
31262;SDS011;17892;52.080;9.006;2023-08-24T15:15:52;5.85;;;1.73;;